Time;durP1;ratioP1;P1;durP2;ratioP2;P2;SDS_P1;SDS_P2;PMS_P1;PMS_P2;Temp;Humidity;BMP_temperature;BMP_pressure;BME280_temperature;BME280_humidity;BME280_pressure;Samples;Min_cycle;Max_cycle;Signal;HPM_P1;HPM_P2
2020/12/20 00:01:52;;;;;;;;;57.00;44.00;;;;;5.23;50.31;99784.25;6157886;28;97287;-52
2020/12/20 00:04:53;;;;;;;;;65.00;48.80;;;;;5.15;50.92;99808.31;6158748;28;97947;-52
2020/12/20 00:07:55;;;;;;;;;61.80;47.00;;;;;5.17;50.90;99813.53;6147601;28;98095;-52
2020/12/20 00:10:56;;;;;;;;;67.00;49.00;;;;;5.27;50.68;99808.03;6134930;28;96435;-52
2020/12/20 00:13:58;;;;;;;;;62.00;48.00;;;;;5.15;50.78;99800.31;6156986;28;97657;-52
2020/12/20 00:17:05;;;;;;;;;60.25;47.00;;;;;5.14;50.88;99795.13;6158370;28;97435;-51
2020/12/20 00:20:07;;;;;;;;;57.20;44.00;;;;;5.11;51.31;99763.38;6158780;28;96893;-52
2020/12/20 00:23:09;;;;;;;;;57.60;44.60;;;;;5.31;51.58;99795.97;6159801;28;97117;-51
2020/12/20 00:26:11;;;;;;;;;54.33;43.00;;;;;5.33;51.19;99802.81;6142021;28;97351;-52
2020/12/20 00:29:13;;;;;;;;;58.00;46.00;;;;;5.17;51.46;99797.47;6162640;28;97490;-52
2020/12/20 00:32:15;;;;;;;;;59.00;45.50;;;;;5.31;51.55;99801.34;6162795;28;96715;-51
2020/12/20 00:35:16;;;;;;;;;56.50;44.50;;;;;5.21;51.46;99802.34;6163306;28;96540;-52
2020/12/20 00:38:17;;;;;;;;;58.50;45.00;;;;;4.99;51.71;99794.94;6163232;28;97558;-52
2020/12/20 00:41:19;;;;;;;;;56.80;45.00;;;;;4.63;52.35;99794.34;6163064;28;97461;-52
2020/12/20 00:44:23;;;;;;;;;62.00;47.00;;;;;4.91;52.14;99796.75;6146297;28;97302;-51
2020/12/20 00:47:24;;;;;;;;;61.40;46.80;;;;;4.67;52.37;99793.00;6161501;28;97588;-51
2020/12/20 00:50:26;;;;;;;;;66.50;50.00;;;;;4.77;52.08;99798.22;6129419;28;97568;-52
2020/12/20 00:53:28;;;;;;;;;65.00;50.00;;;;;4.59;52.43;99794.81;6145657;28;98681;-52
2020/12/20 00:56:29;;;;;;;;;66.50;50.00;;;;;4.44;52.87;99786.59;6162934;28;98098;-52
2020/12/20 00:59:31;;;;;;;;;65.60;51.00;;;;;4.56;53.42;99781.78;6154373;28;98620;-52
2020/12/20 01:02:33;;;;;;;;;69.40;52.00;;;;;4.62;52.70;99781.97;6128393;28;97637;-52
2020/12/20 01:05:34;;;;;;;;;68.75;51.00;;;;;4.75;52.19;99779.69;6131045;28;97424;-52
2020/12/20 01:08:36;;;;;;;;;67.60;50.80;;;;;4.75;51.75;99785.00;6144950;28;98646;-52
2020/12/20 01:11:37;;;;;;;;;63.00;49.00;;;;;4.71;51.56;99781.00;6144456;28;97131;-52
2020/12/20 01:14:39;;;;;;;;;68.00;51.00;;;;;4.89;51.71;99778.19;6144322;28;97130;-53
2020/12/20 01:17:40;;;;;;;;;65.20;51.00;;;;;4.97;51.25;99772.06;6140219;28;97504;-52
2020/12/20 01:20:45;;;;;;;;;65.50;51.00;;;;;4.99;50.79;99778.88;6131577;28;97028;-52
2020/12/20 01:23:47;;;;;;;;;64.25;48.75;;;;;5.11;50.51;99774.06;6138225;28;96983;-52
2020/12/20 01:26:49;;;;;;;;;71.00;52.00;;;;;4.35;50.25;99652.22;6158861;28;97482;-53
2020/12/20 01:29:51;;;;;;;;;67.00;50.00;;;;;5.21;49.80;99772.91;6142398;28;97772;-52
2020/12/20 01:32:53;;;;;;;;;65.00;49.00;;;;;5.29;49.95;99772.06;6124461;28;98377;-52
2020/12/20 01:35:54;;;;;;;;;62.75;48.50;;;;;5.19;50.02;99769.56;6161833;28;97430;-52
2020/12/20 01:38:56;;;;;;;;;62.75;46.75;;;;;5.30;50.13;99772.91;6141085;28;97422;-52
2020/12/20 01:41:58;;;;;;;;;63.80;48.80;;;;;5.34;50.11;99776.94;6136624;28;97796;-53
2020/12/20 01:45:06;;;;;;;;;62.25;48.00;;;;;5.34;50.14;99769.75;6140515;28;97543;-53
2020/12/20 01:48:13;;;;;;;;;58.60;46.00;;;;;5.13;49.86;99718.63;6144588;28;97862;-53
2020/12/20 01:51:20;;;;;;;;;58.80;46.00;;;;;5.33;50.07;99749.34;6142088;28;99412;-53
2020/12/20 01:54:33;;;;;;;;;58.50;45.50;;;;;5.53;50.14;99764.06;6155655;28;97199;-52
2020/12/20 01:57:52;;;;;;;;;60.40;46.60;;;;;5.37;50.00;99752.53;6142494;28;97918;-51
2020/12/20 02:01:07;;;;;;;;;62.60;48.80;;;;;5.23;50.17;99733.47;6141612;28;96614;-51
2020/12/20 02:04:25;;;;;;;;;63.40;47.40;;;;;5.26;50.07;99735.00;6142516;28;98444;-52
2020/12/20 02:07:27;;;;;;;;;65.00;49.00;;;;;5.09;50.17;99762.69;6142028;28;97457;-52
2020/12/20 02:10:31;;;;;;;;;63.60;49.80;;;;;5.18;49.98;99751.84;6142678;28;97508;-52
2020/12/20 02:13:34;;;;;;;;;65.60;50.00;;;;;5.16;49.82;99756.53;6122015;28;97516;-51
2020/12/20 02:16:36;;;;;;;;;63.25;49.50;;;;;5.25;49.92;99754.69;6158367;28;97410;-52
2020/12/20 02:19:37;;;;;;;;;64.40;48.40;;;;;5.34;49.86;99753.69;6159651;28;96949;-52
2020/12/20 02:22:56;;;;;;;;;63.00;48.50;;;;;5.36;49.87;99745.53;6140667;28;97475;-51
2020/12/20 02:26:01;;;;;;;;;63.00;48.00;;;;;5.37;49.85;99742.69;6142989;28;97381;-51
2020/12/20 02:29:09;;;;;;;;;66.00;50.00;;;;;5.38;49.67;99746.16;6142754;28;97412;-51
2020/12/20 02:32:10;;;;;;;;;66.50;50.00;;;;;5.41;49.43;99749.38;6159368;28;96926;-52
2020/12/20 02:35:11;;;;;;;;;64.25;50.00;;;;;5.41;49.77;99740.50;6142859;28;97697;-52
2020/12/20 02:38:14;;;;;;;;;63.25;49.50;;;;;5.46;49.90;99751.53;6141805;28;96698;-52
2020/12/20 02:41:20;;;;;;;;;64.60;50.00;;;;;5.46;49.78;99752.38;6142163;28;97198;-52
2020/12/20 02:44:25;;;;;;;;;65.60;50.00;;;;;5.54;49.97;99749.69;6138614;28;97552;-52
2020/12/20 02:47:31;;;;;;;;;63.00;49.00;;;;;5.57;49.94;99749.34;6159340;28;98432;-52
2020/12/20 02:50:35;;;;;;;;;63.80;48.00;;;;;5.58;50.24;99743.00;6142701;28;97352;-52
2020/12/20 02:53:36;;;;;;;;;64.00;48.25;;;;;5.50;49.75;99739.50;6141570;28;98125;-52
2020/12/20 02:56:43;;;;;;;;;62.50;48.00;;;;;5.54;49.83;99744.34;6142277;28;97308;-52
2020/12/20 02:59:49;;;;;;;;;67.40;49.60;;;;;5.62;50.07;99744.31;6143157;28;97156;-52
2020/12/20 03:02:51;;;;;;;;;63.00;49.00;;;;;5.61;49.56;99726.63;6142146;28;97542;-52
2020/12/20 03:05:53;;;;;;;;;66.40;50.40;;;;;5.68;49.59;99754.34;6159600;28;97373;-52
2020/12/20 03:08:54;;;;;;;;;65.60;49.60;;;;;5.75;49.56;99751.00;6152197;28;96710;-52
2020/12/20 03:11:56;;;;;;;;;65.40;48.40;;;;;5.79;49.46;99738.94;6154904;28;97190;-52
2020/12/20 03:14:58;;;;;;;;;64.00;50.00;;;;;5.83;49.53;99746.47;6140419;28;97507;-52
2020/12/20 03:18:00;;;;;;;;;67.00;50.00;;;;;5.82;49.82;99746.63;6141271;28;98659;-51
2020/12/20 03:21:02;;;;;;;;;64.00;48.00;;;;;5.84;49.52;99745.47;6141325;28;98471;-52
2020/12/20 03:24:14;;;;;;;;;64.50;48.00;;;;;5.81;49.61;99745.81;6132927;28;96959;-52
2020/12/20 03:27:27;;;;;;;;;61.40;48.40;;;;;5.78;49.69;99742.63;6132924;28;97372;-52
2020/12/20 03:30:38;;;;;;;;;59.00;46.00;;;;;5.69;49.29;99747.16;6122650;28;98591;-51
2020/12/20 03:33:57;;;;;;;;;62.25;48.00;;;;;5.60;49.03;99754.38;6160032;28;97782;-52
2020/12/20 03:37:15;;;;;;;;;62.00;48.00;;;;;5.43;48.65;99722.44;6132109;28;96793;-52
2020/12/20 03:40:35;;;;;;;;;63.40;49.20;;;;;5.70;48.90;99753.34;6136816;28;97188;-51
2020/12/20 03:43:37;;;;;;;;;62.60;49.00;;;;;5.57;48.38;99754.69;6142065;28;98707;-51
2020/12/20 03:46:38;;;;;;;;;63.00;49.00;;;;;5.60;48.18;99756.19;6142540;28;98526;-51
2020/12/20 03:49:40;;;;;;;;;62.80;48.60;;;;;5.61;48.26;99756.03;6142244;28;97100;-52
2020/12/20 03:52:42;;;;;;;;;61.75;47.75;;;;;5.52;48.12;99778.44;6141475;28;96695;-52
2020/12/20 03:55:58;;;;;;;;;60.50;46.00;;;;;5.47;48.21;99754.03;6142293;28;97776;-52
2020/12/20 03:59:00;;;;;;;;;58.00;47.50;;;;;5.12;48.61;99701.75;6142305;28;98650;-53
2020/12/20 04:02:02;;;;;;;;;62.00;47.50;;;;;5.19;48.59;99760.72;6142173;28;97480;-52
2020/12/20 04:05:05;;;;;;;;;60.20;45.80;;;;;5.19;48.59;99761.53;6142458;28;98457;-52
2020/12/20 04:08:07;;;;;;;;;60.60;46.00;;;;;5.22;48.70;99777.28;6144411;28;97727;-51
2020/12/20 04:11:09;;;;;;;;;58.80;46.40;;;;;5.22;48.90;99769.25;6159826;28;98544;-51
2020/12/20 04:14:11;;;;;;;;;62.00;48.00;;;;;5.28;48.96;99766.91;6142163;28;98713;-52
2020/12/20 04:17:13;;;;;;;;;60.00;46.00;;;;;5.34;49.37;99764.41;6141751;28;96683;-51
2020/12/20 04:20:16;;;;;;;;;57.20;45.00;;;;;5.40;49.27;99762.91;6158420;28;97577;-52
2020/12/20 04:23:26;;;;;;;;;57.00;45.50;;;;;5.46;48.97;99771.09;6140521;28;96783;-52
2020/12/20 04:26:54;;;;;;;;;57.40;45.00;;;;;5.36;49.17;99769.59;6153713;28;99261;-52
2020/12/20 04:30:18;;;;;;;;;57.25;45.50;;;;;5.38;48.95;99773.75;6143016;28;96852;-51
2020/12/20 04:33:20;;;;;;;;;60.00;46.00;;;;;5.26;49.20;99763.56;6137637;28;98254;-52
2020/12/20 04:36:26;;;;;;;;;60.80;46.60;;;;;5.30;49.75;99757.72;6141668;28;97391;-52
2020/12/20 04:39:32;;;;;;;;;62.00;47.00;;;;;5.10;49.56;99745.66;6141400;28;96704;-51
2020/12/20 04:42:34;;;;;;;;;57.00;46.00;;;;;5.01;49.81;99757.34;6140848;28;96814;-52
2020/12/20 04:45:39;;;;;;;;;56.60;44.40;;;;;5.05;49.94;99756.84;6138793;28;97437;-52
2020/12/20 04:48:48;;;;;;;;;62.00;48.00;;;;;4.91;49.80;99754.00;6157790;28;97148;-53
2020/12/20 04:51:50;;;;;;;;;59.60;45.00;;;;;4.99;49.31;99748.66;6138927;28;97807;-53
2020/12/20 04:54:52;;;;;;;;;55.60;44.60;;;;;5.00;49.36;99747.66;6139790;28;97817;-53
2020/12/20 04:58:16;;;;;;;;;61.00;45.80;;;;;5.18;49.30;99762.53;6151146;28;98472;-51
2020/12/20 05:01:18;;;;;;;;;56.00;43.75;;;;;5.24;48.91;99753.88;6140494;28;97081;-52
2020/12/20 05:04:20;;;;;;;;;61.00;46.00;;;;;5.30;48.54;99768.41;6158437;28;97457;-52
2020/12/20 05:07:22;;;;;;;;;62.00;46.00;;;;;5.10;48.70;99733.16;6141591;28;97404;-52
2020/12/20 05:10:38;;;;;;;;;60.60;46.60;;;;;5.13;48.52;99746.16;6141203;28;98284;-53
2020/12/20 05:13:41;;;;;;;;;61.20;46.00;;;;;5.13;48.51;99751.50;6139667;28;97565;-52
2020/12/20 05:16:51;;;;;;;;;61.80;47.00;;;;;5.31;48.86;99770.09;6145178;28;97466;-52
2020/12/20 05:19:55;;;;;;;;;60.20;46.60;;;;;5.28;48.81;99761.56;6144503;28;97550;-52
2020/12/20 05:22:57;;;;;;;;;63.20;47.80;;;;;5.36;48.46;99772.25;6162469;28;97723;-52
2020/12/20 05:26:06;;;;;;;;;60.60;47.60;;;;;5.37;48.08;99764.09;6144063;28;97486;-51
2020/12/20 05:29:13;;;;;;;;;64.00;48.00;;;;;5.35;48.14;99766.06;6145099;28;96955;-53
2020/12/20 05:32:25;;;;;;;;;64.00;48.00;;;;;5.36;48.18;99766.91;6143743;28;97151;-51
2020/12/20 05:35:35;;;;;;;;;65.40;48.40;;;;;5.34;48.28;99768.91;6144579;28;97238;-53
2020/12/20 05:38:38;;;;;;;;;62.00;48.00;;;;;5.08;48.76;99731.66;6145016;28;98597;-52
2020/12/20 05:41:42;;;;;;;;;62.00;46.80;;;;;5.40;48.96;99768.25;6143184;28;97301;-52
2020/12/20 05:44:45;;;;;;;;;62.60;46.00;;;;;5.27;49.05;99739.34;6143969;28;96938;-52
2020/12/20 05:47:52;;;;;;;;;61.33;47.00;;;;;5.48;48.87;99763.72;6144345;28;98374;-52
2020/12/20 05:50:59;;;;;;;;;64.40;46.60;;;;;5.41;49.03;99764.56;6144317;28;98511;-52
2020/12/20 05:54:13;;;;;;;;;60.00;46.00;;;;;5.44;48.87;99773.09;6142491;28;97978;-52
2020/12/20 05:57:17;;;;;;;;;58.00;45.00;;;;;5.45;49.04;99756.03;6160723;28;98134;-52
2020/12/20 06:00:19;;;;;;;;;61.20;46.60;;;;;5.68;49.02;99782.94;6152770;28;96502;-52
2020/12/20 06:03:21;;;;;;;;;60.00;46.80;;;;;5.67;48.86;99774.06;6119264;28;97588;-52
2020/12/20 06:06:30;;;;;;;;;59.80;47.20;;;;;5.66;48.72;99780.44;6142818;28;98333;-52
2020/12/20 06:09:31;;;;;;;;;62.60;48.60;;;;;5.64;48.75;99781.59;6159589;28;97460;-52
2020/12/20 06:12:33;;;;;;;;;61.00;48.00;;;;;5.68;48.37;99794.47;6140901;28;97682;-52
2020/12/20 06:15:37;;;;;;;;;63.20;48.40;;;;;5.72;48.60;99789.63;6148877;28;98495;-52
2020/12/20 06:18:50;;;;;;;;;62.60;47.00;;;;;5.76;48.51;99787.47;6159660;28;96895;-51
2020/12/20 06:21:59;;;;;;;;;62.20;48.40;;;;;5.77;48.54;99797.97;6145064;28;97681;-53
2020/12/20 06:25:04;;;;;;;;;62.40;46.60;;;;;5.73;48.68;99787.78;6157159;28;96948;-53
2020/12/20 06:28:14;;;;;;;;;63.00;47.60;;;;;5.76;48.59;99807.03;6143619;28;97310;-52
2020/12/20 06:31:19;;;;;;;;;61.75;46.50;;;;;5.78;48.97;99798.81;6170601;28;98492;-53
2020/12/20 06:34:22;;;;;;;;;57.00;43.50;;;;;5.80;49.13;99813.72;6148006;28;97466;-53
2020/12/20 06:37:24;;;;;;;;;56.20;43.60;;;;;5.91;49.02;99804.53;6132323;28;97648;-53
2020/12/20 06:40:28;;;;;;;;;58.00;44.80;;;;;5.92;49.12;99806.19;6160786;28;96694;-53
2020/12/20 06:43:37;;;;;;;;;55.20;44.00;;;;;5.93;49.18;99802.50;6146619;28;99002;-52
2020/12/20 06:46:39;;;;;;;;;55.60;44.00;;;;;5.99;48.70;99805.34;6160105;28;97647;-51
2020/12/20 06:49:42;;;;;;;;;55.00;43.00;;;;;6.00;48.84;99809.72;6149480;28;97142;-52
2020/12/20 06:52:46;;;;;;;;;59.00;44.20;;;;;6.01;48.47;99813.22;6137948;28;96813;-51
2020/12/20 06:55:48;;;;;;;;;60.00;46.00;;;;;5.79;48.41;99790.63;6159552;28;98103;-51
2020/12/20 06:58:51;;;;;;;;;57.00;45.00;;;;;5.93;48.39;99810.53;6160511;28;96647;-51
2020/12/20 07:01:52;;;;;;;;;57.33;44.00;;;;;5.91;48.38;99809.88;6158776;28;97487;-52
2020/12/20 07:04:54;;;;;;;;;58.50;45.25;;;;;5.83;48.60;99808.00;6160692;28;97192;-51
2020/12/20 07:08:21;;;;;;;;;57.60;44.00;;;;;5.87;49.01;99813.88;6160016;28;97348;-53
2020/12/20 07:11:25;;;;;;;;;57.00;44.00;;;;;5.80;48.85;99805.69;6159036;28;97456;-53
2020/12/20 07:14:34;;;;;;;;;55.00;43.60;;;;;5.87;49.32;99806.69;6159460;28;97268;-53
2020/12/20 07:17:44;;;;;;;;;57.80;44.00;;;;;5.95;49.18;99816.56;6160131;28;97468;-53
2020/12/20 07:20:46;;;;;;;;;56.75;44.50;;;;;6.00;48.65;99819.56;6158851;28;96718;-52
2020/12/20 07:24:02;;;;;;;;;59.20;44.00;;;;;5.99;48.75;99824.09;6157222;28;98485;-52
2020/12/20 07:27:06;;;;;;;;;59.80;45.40;;;;;5.99;48.91;99829.44;6154449;28;97631;-52
2020/12/20 07:30:07;;;;;;;;;59.00;43.40;;;;;6.09;48.84;99837.28;6147121;28;98129;-51
2020/12/20 07:33:09;;;;;;;;;59.00;46.00;;;;;6.17;48.80;99839.09;6151318;28;97338;-52
2020/12/20 07:36:11;;;;;;;;;56.50;44.00;;;;;6.05;48.84;99822.59;6158708;28;96696;-52
2020/12/20 07:39:13;;;;;;;;;56.00;44.00;;;;;6.22;48.43;99842.09;6160760;28;97138;-51
2020/12/20 07:42:15;;;;;;;;;55.40;44.00;;;;;6.24;48.53;99843.63;6159782;28;98591;-52
2020/12/20 07:45:22;;;;;;;;;50.50;38.25;;;;;6.28;48.04;99842.28;6159524;28;96689;-52
2020/12/20 07:48:25;;;;;;;;;50.00;39.00;;;;;6.29;47.69;99851.16;6147117;28;97659;-52
2020/12/20 07:51:26;;;;;;;;;48.25;38.75;;;;;6.34;47.93;99843.44;6157828;28;96874;-52
2020/12/20 07:54:28;;;;;;;;;51.00;41.00;;;;;6.38;47.90;99840.25;6159548;28;97563;-52
2020/12/20 07:57:31;;;;;;;;;48.50;39.00;;;;;6.37;48.02;99843.91;6159137;28;98057;-52
2020/12/20 08:00:32;;;;;;;;;52.50;41.00;;;;;6.46;47.73;99837.53;6158030;28;97316;-52
2020/12/20 08:03:34;;;;;;;;;56.50;41.50;;;;;6.51;47.90;99834.31;6159817;28;96492;-52
2020/12/20 08:06:41;;;;;;;;;55.75;43.00;;;;;6.56;48.09;99839.16;6159705;28;96551;-52
2020/12/20 08:09:44;;;;;;;;;52.75;42.00;;;;;6.44;47.89;99836.88;6159299;28;96528;-51
2020/12/20 08:12:52;;;;;;;;;55.60;44.00;;;;;6.21;48.01;99843.09;6153431;28;96514;-53
2020/12/20 08:15:53;;;;;;;;;55.25;43.25;;;;;6.32;48.41;99835.56;6117924;28;96635;-52
2020/12/20 08:19:01;;;;;;;;;54.75;42.00;;;;;6.32;48.23;99834.72;6147467;28;97071;-52
2020/12/20 08:22:07;;;;;;;;;53.00;41.00;;;;;5.80;48.86;99820.91;6159249;28;97729;-51
2020/12/20 08:25:10;;;;;;;;;57.00;43.80;;;;;5.86;49.29;99839.81;6159777;28;97662;-51
2020/12/20 08:28:11;;;;;;;;;53.75;42.50;;;;;5.79;49.26;99849.50;6158050;28;97376;-52
2020/12/20 08:31:14;;;;;;;;;51.20;41.00;;;;;5.83;49.34;99850.00;6152989;28;97195;-53
2020/12/20 08:34:24;;;;;;;;;55.00;42.80;;;;;5.95;48.69;99846.84;6155768;28;97023;-53
2020/12/20 08:37:26;;;;;;;;;51.50;39.75;;;;;6.14;48.61;99842.13;6155760;28;96995;-53
2020/12/20 08:40:31;;;;;;;;;57.00;44.00;;;;;6.15;48.30;99838.47;6154292;28;96600;-52
2020/12/20 08:43:33;;;;;;;;;54.00;42.33;;;;;6.23;48.06;99849.13;6156645;28;97518;-52
2020/12/20 08:46:45;;;;;;;;;55.00;43.00;;;;;6.31;47.90;99841.06;6159000;28;98531;-51
2020/12/20 08:49:59;;;;;;;;;58.20;45.00;;;;;6.26;47.72;99812.13;6162862;28;96601;-52
2020/12/20 08:53:03;;;;;;;;;57.60;45.40;;;;;6.55;48.05;99840.19;6163362;28;98716;-51
2020/12/20 08:56:08;;;;;;;;;59.00;44.50;;;;;6.38;47.53;99794.72;6138280;28;97454;-51
2020/12/20 08:59:27;;;;;;;;;53.80;42.20;;;;;6.69;48.26;99840.31;6144557;28;96597;-52
2020/12/20 09:02:28;;;;;;;;;51.60;40.20;;;;;6.76;48.33;99843.13;6160986;28;97420;-52
2020/12/20 09:05:31;;;;;;;;;49.60;38.00;;;;;6.91;48.19;99833.31;6134404;28;97289;-52
2020/12/20 09:08:33;;;;;;;;;47.80;38.20;;;;;7.03;48.13;99829.25;6154349;28;97077;-53
2020/12/20 09:11:34;;;;;;;;;52.60;43.00;;;;;7.09;47.04;99833.91;6161507;28;97014;-52
2020/12/20 09:14:36;;;;;;;;;55.80;42.80;;;;;7.11;46.93;99831.88;6176280;28;96877;-52
2020/12/20 09:17:43;;;;;;;;;52.50;41.00;;;;;7.22;47.68;99830.66;6167870;28;97048;-52
2020/12/20 09:20:46;;;;;;;;;53.40;41.00;;;;;6.80;47.03;99782.78;6138835;28;97465;-51
2020/12/20 09:23:59;;;;;;;;;53.75;42.25;;;;;6.73;46.66;99792.56;6140134;28;96967;-51
2020/12/20 09:27:01;;;;;;;;;58.00;44.00;;;;;7.07;47.04;99840.47;6152743;28;97176;-51
2020/12/20 09:30:04;;;;;;;;;53.80;43.00;;;;;7.18;47.21;99832.88;6160671;28;96617;-52
2020/12/20 09:33:22;;;;;;;;;56.00;42.20;;;;;6.92;47.13;99835.84;6151812;28;98423;-52
2020/12/20 09:36:35;;;;;;;;;51.00;39.20;;;;;6.92;47.24;99827.81;6150736;28;97412;-53
2020/12/20 09:39:56;;;;;;;;;52.00;41.00;;;;;7.05;47.35;99834.44;6137259;28;97249;-53
2020/12/20 09:42:57;;;;;;;;;56.00;42.20;;;;;7.05;46.62;99840.63;6152424;28;97427;-53
2020/12/20 09:46:00;;;;;;;;;50.67;41.00;;;;;6.99;46.55;99829.78;6182001;28;97574;-53
2020/12/20 09:49:03;;;;;;;;;52.50;41.50;;;;;6.53;46.98;99805.53;6183264;28;97658;-53
2020/12/20 09:52:04;;;;;;;;;58.40;44.80;;;;;6.72;46.91;99820.34;6159445;28;97522;-53
2020/12/20 09:55:07;;;;;;;;;59.40;44.40;;;;;6.64;47.38;99826.59;6149566;28;98330;-53
2020/12/20 09:58:13;;;;;;;;;58.00;45.50;;;;;6.55;47.75;99824.13;6136042;28;96428;-52
2020/12/20 10:01:19;;;;;;;;;58.40;45.40;;;;;6.59;47.90;99820.94;6140794;28;98030;-51
2020/12/20 10:04:21;;;;;;;;;58.00;46.00;;;;;6.72;48.13;99815.84;6163945;28;97414;-52
2020/12/20 10:07:22;;;;;;;;;61.60;48.40;;;;;6.78;47.86;99808.94;6159543;28;97233;-52
2020/12/20 10:10:24;;;;;;;;;57.40;44.20;;;;;6.88;47.66;99813.09;6143045;28;97261;-51
2020/12/20 10:13:26;;;;;;;;;54.60;41.60;;;;;6.99;46.70;99821.75;6160335;28;96763;-52
2020/12/20 10:16:28;;;;;;;;;57.00;44.00;;;;;7.09;46.59;99816.97;6151607;28;96595;-52
2020/12/20 10:19:30;;;;;;;;;56.60;44.00;;;;;7.07;46.49;99808.28;6163819;28;96946;-52
2020/12/20 10:22:31;;;;;;;;;57.50;46.00;;;;;7.02;46.50;99810.66;6158253;28;97067;-51
2020/12/20 10:25:49;;;;;;;;;59.40;43.00;;;;;6.84;47.30;99808.25;6159735;28;97579;-51
2020/12/20 10:28:51;;;;;;;;;59.50;44.00;;;;;6.91;47.26;99804.69;6143082;28;97210;-52
2020/12/20 10:31:52;;;;;;;;;55.40;43.40;;;;;6.83;47.71;99795.84;6140463;28;97617;-53
2020/12/20 10:34:53;;;;;;;;;60.00;46.00;;;;;6.86;48.15;99798.19;6157941;28;98765;-53
2020/12/20 10:37:56;;;;;;;;;60.00;44.60;;;;;6.62;47.86;99766.13;6153037;28;98299;-51
2020/12/20 10:40:57;;;;;;;;;56.00;43.00;;;;;6.89;48.14;99793.28;6148556;28;96552;-52
2020/12/20 10:43:59;;;;;;;;;54.00;42.00;;;;;7.05;48.02;99794.22;6155998;28;97473;-52
2020/12/20 10:47:00;;;;;;;;;54.20;41.80;;;;;6.98;47.57;99748.53;6162813;28;96630;-51
2020/12/20 10:50:03;;;;;;;;;58.00;43.00;;;;;7.38;47.27;99796.50;6166791;28;97561;-51
2020/12/20 10:53:04;;;;;;;;;49.80;39.80;;;;;7.49;46.84;99797.09;6153285;28;98179;-52
2020/12/20 10:56:10;;;;;;;;;55.00;43.00;;;;;7.60;47.00;99802.03;6157720;28;97554;-52
2020/12/20 10:59:12;;;;;;;;;55.50;43.00;;;;;7.73;46.75;99800.41;6159056;28;96998;-52
2020/12/20 11:02:13;;;;;;;;;56.00;43.00;;;;;7.83;46.13;99797.47;6141305;28;97684;-52
2020/12/20 11:05:15;;;;;;;;;53.60;40.00;;;;;7.88;46.38;99795.06;6153082;28;97188;-52
2020/12/20 11:08:16;;;;;;;;;49.00;39.60;;;;;7.88;45.91;99795.06;6158360;28;96707;-51
2020/12/20 11:11:18;;;;;;;;;55.60;43.00;;;;;7.94;46.33;99805.09;6158480;28;96860;-52
2020/12/20 11:14:22;;;;;;;;;52.00;41.00;;;;;7.96;46.45;99804.91;6158710;28;97246;-51
2020/12/20 11:17:23;;;;;;;;;50.50;40.00;;;;;7.96;46.12;99792.31;6159656;28;97163;-52
2020/12/20 11:20:25;;;;;;;;;50.40;39.20;;;;;8.01;46.44;99802.50;6158595;28;97091;-52
2020/12/20 11:23:28;;;;;;;;;53.00;41.20;;;;;8.04;46.49;99804.81;6148824;28;96850;-52
2020/12/20 11:26:35;;;;;;;;;52.60;40.40;;;;;8.01;46.15;99799.81;6155277;28;96896;-52
2020/12/20 11:29:39;;;;;;;;;49.00;39.25;;;;;8.00;46.21;99800.84;6160257;28;98564;-52
2020/12/20 11:32:40;;;;;;;;;49.60;39.20;;;;;7.96;45.86;99811.13;6175162;28;97022;-52
2020/12/20 11:35:42;;;;;;;;;50.60;38.60;;;;;8.02;46.12;99814.91;6166060;28;96870;-52
2020/12/20 11:38:44;;;;;;;;;48.80;38.00;;;;;7.57;46.06;99783.63;6171359;28;97121;-52
2020/12/20 11:41:46;;;;;;;;;52.60;41.00;;;;;7.83;46.50;99805.50;6159104;28;97322;-51
2020/12/20 11:44:47;;;;;;;;;54.25;40.75;;;;;7.74;46.49;99810.13;6172876;28;98018;-51
2020/12/20 11:47:49;;;;;;;;;52.50;41.00;;;;;7.43;46.80;99776.34;6158140;28;97040;-52
2020/12/20 11:50:50;;;;;;;;;53.00;39.80;;;;;7.57;47.35;99811.28;6159283;28;97642;-52
2020/12/20 11:53:53;;;;;;;;;49.80;38.20;;;;;7.54;47.37;99805.44;6159341;28;96467;-50
2020/12/20 11:56:55;;;;;;;;;51.00;40.00;;;;;7.51;47.37;99819.22;6157896;28;96561;-51
2020/12/20 11:59:57;;;;;;;;;49.00;38.00;;;;;7.46;47.21;99813.56;6157185;28;97429;-52
2020/12/20 12:02:58;;;;;;;;;50.00;38.00;;;;;7.46;47.34;99810.88;6158246;28;96427;-51
2020/12/20 12:06:00;;;;;;;;;50.40;39.00;;;;;7.51;47.36;99817.38;6157089;28;96632;-52
2020/12/20 12:09:02;;;;;;;;;47.00;38.00;;;;;7.48;47.48;99815.03;6154409;28;96814;-52
2020/12/20 12:12:03;;;;;;;;;49.00;38.00;;;;;7.52;47.25;99815.53;6134548;28;96572;-52
2020/12/20 12:15:05;;;;;;;;;47.00;37.60;;;;;7.51;47.57;99812.00;6134311;28;97585;-51
2020/12/20 12:18:07;;;;;;;;;49.00;37.40;;;;;7.47;47.35;99810.69;6135147;28;96593;-52
2020/12/20 12:21:16;;;;;;;;;47.50;38.75;;;;;7.18;47.92;99805.22;6162772;28;97995;-52
2020/12/20 12:24:21;;;;;;;;;50.40;40.00;;;;;7.23;48.44;99805.50;6161828;28;97367;-51
2020/12/20 12:27:22;;;;;;;;;50.25;39.00;;;;;7.15;48.33;99781.41;6161980;28;98260;-51
2020/12/20 12:30:24;;;;;;;;;48.20;38.00;;;;;7.35;47.68;99806.75;6163149;28;97639;-52
2020/12/20 12:33:25;;;;;;;;;49.00;38.40;;;;;7.38;48.02;99785.75;6161972;28;96931;-51
2020/12/20 12:36:27;;;;;;;;;51.00;39.60;;;;;7.49;48.09;99803.28;6163924;28;98605;-51
2020/12/20 12:39:28;;;;;;;;;50.00;39.67;;;;;7.60;47.81;99799.34;6163575;28;97229;-52
2020/12/20 12:42:30;;;;;;;;;49.75;39.75;;;;;7.62;47.87;99800.84;6162535;28;96880;-51
2020/12/20 12:45:31;;;;;;;;;47.50;37.50;;;;;7.65;47.92;99799.66;6162596;28;97458;-52
2020/12/20 12:48:33;;;;;;;;;45.00;36.00;;;;;7.69;47.76;99795.56;6162903;28;97233;-51
2020/12/20 12:51:35;;;;;;;;;46.60;37.60;;;;;7.67;47.65;99795.75;6163052;28;97098;-52
2020/12/20 12:54:36;;;;;;;;;50.60;41.00;;;;;7.59;47.85;99798.50;6162307;28;97184;-52
2020/12/20 12:57:37;;;;;;;;;47.80;38.00;;;;;7.43;47.99;99801.31;6163697;28;97395;-52
2020/12/20 13:00:39;;;;;;;;;48.80;38.00;;;;;7.40;48.37;99812.41;6162763;28;97104;-52
2020/12/20 13:03:40;;;;;;;;;50.00;39.00;;;;;7.45;48.37;99801.16;6161319;28;96947;-53
2020/12/20 13:06:42;;;;;;;;;49.00;40.00;;;;;7.43;48.37;99806.69;6163102;28;96503;-53
2020/12/20 13:09:43;;;;;;;;;48.00;38.60;;;;;7.43;48.46;99801.31;6162699;28;97805;-53
2020/12/20 13:12:45;;;;;;;;;47.00;37.20;;;;;7.36;48.35;99801.22;6162561;28;98306;-52
2020/12/20 13:15:47;;;;;;;;;49.00;38.00;;;;;7.44;48.79;99811.03;6162314;28;97159;-53
2020/12/20 13:18:49;;;;;;;;;53.25;39.00;;;;;7.54;48.69;99808.94;6161904;28;97983;-53
2020/12/20 13:21:51;;;;;;;;;50.50;38.50;;;;;7.56;48.38;99806.09;6163044;28;98535;-53
2020/12/20 13:24:53;;;;;;;;;47.40;37.40;;;;;7.52;48.51;99799.44;6162213;28;97210;-53
2020/12/20 13:27:54;;;;;;;;;49.00;38.50;;;;;7.59;48.28;99801.19;6160760;28;97472;-53
2020/12/20 13:30:55;;;;;;;;;51.80;40.80;;;;;7.60;48.31;99802.88;6161686;28;96621;-53
2020/12/20 13:33:58;;;;;;;;;51.50;41.00;;;;;7.59;48.34;99811.94;6160878;28;96532;-54
2020/12/20 13:37:00;;;;;;;;;48.00;38.50;;;;;7.53;48.38;99812.66;6162244;28;97095;-54
2020/12/20 13:40:01;;;;;;;;;49.00;37.50;;;;;7.46;48.54;99805.50;6161435;28;97394;-54
2020/12/20 13:43:04;;;;;;;;;45.00;36.00;;;;;7.10;49.23;99792.66;6162366;28;97288;-54
2020/12/20 13:46:06;;;;;;;;;46.75;38.00;;;;;6.91;49.62;99793.13;6143889;28;97428;-54
2020/12/20 13:49:07;;;;;;;;;52.00;41.00;;;;;6.97;49.71;99793.25;6141475;28;97507;-54
2020/12/20 13:52:26;;;;;;;;;53.80;40.40;;;;;6.92;49.96;99797.47;6152645;28;98754;-54
2020/12/20 13:55:28;;;;;;;;;54.00;40.00;;;;;6.91;50.12;99771.69;6137483;28;96651;-54
2020/12/20 13:58:30;;;;;;;;;50.00;39.60;;;;;7.16;49.63;99796.50;6160672;28;97411;-54
2020/12/20 14:01:31;;;;;;;;;51.20;39.00;;;;;7.18;49.49;99792.63;6160038;28;97653;-54
2020/12/20 14:04:34;;;;;;;;;51.40;40.20;;;;;7.07;49.55;99787.66;6161503;28;96879;-54
2020/12/20 14:07:35;;;;;;;;;53.50;40.00;;;;;6.95;49.81;99789.06;6150749;28;97492;-54
2020/12/20 14:10:36;;;;;;;;;55.00;40.00;;;;;6.87;50.37;99795.31;6158697;28;96788;-53
2020/12/20 14:13:38;;;;;;;;;54.00;41.00;;;;;6.95;50.20;99789.06;6160901;28;96450;-54
2020/12/20 14:16:39;;;;;;;;;50.60;41.00;;;;;7.01;50.25;99792.91;6161692;28;97620;-54